sensor_id;sensor_type;location;lat;lon;timestamp;pressure;altitude;pressure_sealevel;temperature;humidity
76311;BME280;65120;59.304;18.294;2023-05-14T00:01:53;102562.34;;;9.98;54.36
76311;BME280;65120;59.304;18.294;2023-05-14T00:04:21;102546.56;;;9.89;54.55
76311;BME280;65120;59.304;18.294;2023-05-14T00:06:48;102555.34;;;9.94;54.81
76311;BME280;65120;59.304;18.294;2023-05-14T00:09:15;102555.31;;;9.91;54.62
76311;BME280;65120;59.304;18.294;2023-05-14T00:11:42;102556.97;;;9.87;54.64
76311;BME280;65120;59.304;18.294;2023-05-14T00:14:09;102555.25;;;9.86;54.98
76311;BME280;65120;59.304;18.294;2023-05-14T00:16:36;102550.84;;;9.84;55.30
76311;BME280;65120;59.304;18.294;2023-05-14T00:19:04;102557.81;;;9.82;55.36
76311;BME280;65120;59.304;18.294;2023-05-14T00:21:31;102557.78;;;9.80;55.37
76311;BME280;65120;59.304;18.294;2023-05-14T00:23:57;102557.72;;;9.79;55.64
76311;BME280;65120;59.304;18.294;2023-05-14T00:26:24;102556.81;;;9.74;55.90
76311;BME280;65120;59.304;18.294;2023-05-14T00:28:51;102553.31;;;9.72;55.94
76311;BME280;65120;59.304;18.294;2023-05-14T00:31:18;102559.41;;;9.72;55.41
76311;BME280;65120;59.304;18.294;2023-05-14T00:33:45;102562.00;;;9.71;55.34
76311;BME280;65120;59.304;18.294;2023-05-14T00:36:13;102558.47;;;9.68;55.71
76311;BME280;65120;59.304;18.294;2023-05-14T00:38:40;102559.31;;;9.66;55.63
76311;BME280;65120;59.304;18.294;2023-05-14T00:41:07;102561.03;;;9.64;55.45
76311;BME280;65120;59.304;18.294;2023-05-14T00:43:34;102556.63;;;9.61;55.41
76311;BME280;65120;59.304;18.294;2023-05-14T00:46:01;102557.47;;;9.57;55.79
76311;BME280;65120;59.304;18.294;2023-05-14T00:48:28;102558.31;;;9.56;56.14
76311;BME280;65120;59.304;18.294;2023-05-14T00:50:55;102559.16;;;9.54;55.67
76311;BME280;65120;59.304;18.294;2023-05-14T00:53:23;102556.50;;;9.52;56.48
76311;BME280;65120;59.304;18.294;2023-05-14T00:55:51;102565.19;;;9.51;56.20
76311;BME280;65120;59.304;18.294;2023-05-14T00:58:18;102551.25;;;9.49;56.50
76311;BME280;65120;59.304;18.294;2023-05-14T01:00:45;102564.25;;;9.46;56.45
76311;BME280;65120;59.304;18.294;2023-05-14T01:03:12;102557.28;;;9.45;56.02
76311;BME280;65120;59.304;18.294;2023-05-14T01:05:42;102554.59;;;9.42;56.21
76311;BME280;65120;59.304;18.294;2023-05-14T01:08:17;102558.91;;;9.38;56.57
76311;BME280;65120;59.304;18.294;2023-05-14T01:10:51;102562.38;;;9.37;56.30
76311;BME280;65120;59.304;18.294;2023-05-14T01:13:26;102559.72;;;9.36;56.84
76311;BME280;65120;59.304;18.294;2023-05-14T01:15:55;102555.34;;;9.33;56.88
76311;BME280;65120;59.304;18.294;2023-05-14T01:18:23;102553.59;;;9.32;56.92
76311;BME280;65120;59.304;18.294;2023-05-14T01:20:50;102564.91;;;9.31;57.03
76311;BME280;65120;59.304;18.294;2023-05-14T01:23:19;102542.13;;;9.19;57.08
76311;BME280;65120;59.304;18.294;2023-05-14T01:25:46;102554.38;;;9.27;56.97
76311;BME280;65120;59.304;18.294;2023-05-14T01:28:16;102550.88;;;9.24;56.94
76311;BME280;65120;59.304;18.294;2023-05-14T01:30:49;102555.22;;;9.24;57.02
76311;BME280;65120;59.304;18.294;2023-05-14T01:33:18;102557.78;;;9.21;57.19
76311;BME280;65120;59.304;18.294;2023-05-14T01:35:45;102556.00;;;9.18;56.85
76311;BME280;65120;59.304;18.294;2023-05-14T01:38:14;102556.00;;;9.18;57.39
76311;BME280;65120;59.304;18.294;2023-05-14T01:40:45;102549.88;;;9.15;57.17
76311;BME280;65120;59.304;18.294;2023-05-14T01:43:12;102549.81;;;9.12;57.19
76311;BME280;65120;59.304;18.294;2023-05-14T01:45:40;102551.56;;;9.13;57.33
76311;BME280;65120;59.304;18.294;2023-05-14T01:48:07;102555.91;;;9.12;57.50
76311;BME280;65120;59.304;18.294;2023-05-14T01:50:34;102550.63;;;9.09;57.74
76311;BME280;65120;59.304;18.294;2023-05-14T01:53:01;102554.13;;;9.08;57.92
76311;BME280;65120;59.304;18.294;2023-05-14T01:55:28;102556.69;;;9.07;58.06
76311;BME280;65120;59.304;18.294;2023-05-14T01:57:56;102554.06;;;9.05;57.79
76311;BME280;65120;59.304;18.294;2023-05-14T02:00:23;102550.56;;;9.05;58.01
76311;BME280;65120;59.304;18.294;2023-05-14T02:02:51;102545.34;;;9.03;57.81
76311;BME280;65120;59.304;18.294;2023-05-14T02:05:18;102555.75;;;9.03;57.66
76311;BME280;65120;59.304;18.294;2023-05-14T02:07:45;102553.06;;;8.98;58.24
76311;BME280;65120;59.304;18.294;2023-05-14T02:10:12;102550.44;;;8.97;58.14
76311;BME280;65120;59.304;18.294;2023-05-14T02:12:39;102560.00;;;8.98;58.20
76311;BME280;65120;59.304;18.294;2023-05-14T02:15:08;102562.56;;;8.96;57.89
76311;BME280;65120;59.304;18.294;2023-05-14T02:17:35;102555.63;;;8.94;58.24
76311;BME280;65120;59.304;18.294;2023-05-14T02:20:03;102556.44;;;8.93;57.83
76311;BME280;65120;59.304;18.294;2023-05-14T02:22:30;102552.97;;;8.91;58.39
76311;BME280;65120;59.304;18.294;2023-05-14T02:24:56;102553.78;;;8.90;58.37
76311;BME280;65120;59.304;18.294;2023-05-14T02:27:23;102552.06;;;8.90;58.50
76311;BME280;65120;59.304;18.294;2023-05-14T02:29:50;102551.16;;;8.88;58.50
76311;BME280;65120;59.304;18.294;2023-05-14T02:32:18;102546.75;;;8.84;58.14
76311;BME280;65120;59.304;18.294;2023-05-14T02:34:45;102542.44;;;8.86;58.47
76311;BME280;65120;59.304;18.294;2023-05-14T02:37:12;102546.78;;;8.86;58.51
76311;BME280;65120;59.304;18.294;2023-05-14T02:39:39;102539.75;;;8.82;58.65
76311;BME280;65120;59.304;18.294;2023-05-14T02:42:06;102540.63;;;8.82;58.74
76311;BME280;65120;59.304;18.294;2023-05-14T02:44:33;102544.13;;;8.83;58.70
76311;BME280;65120;59.304;18.294;2023-05-14T02:47:00;102543.19;;;8.79;58.62
76311;BME280;65120;59.304;18.294;2023-05-14T02:49:28;102547.56;;;8.80;58.86
76311;BME280;65120;59.304;18.294;2023-05-14T02:51:55;102543.16;;;8.77;59.01
76311;BME280;65120;59.304;18.294;2023-05-14T02:54:22;102544.91;;;8.78;59.20
76311;BME280;65120;59.304;18.294;2023-05-14T02:56:48;102539.69;;;8.77;59.11
76311;BME280;65120;59.304;18.294;2023-05-14T02:59:15;102545.72;;;8.76;59.25
76311;BME280;65120;59.304;18.294;2023-05-14T03:01:42;102547.47;;;8.75;58.86
76311;BME280;65120;59.304;18.294;2023-05-14T03:04:09;102542.25;;;8.75;59.35
76311;BME280;65120;59.304;18.294;2023-05-14T03:06:37;102541.34;;;8.73;59.42
76311;BME280;65120;59.304;18.294;2023-05-14T03:09:04;102541.34;;;8.73;59.42
76311;BME280;65120;59.304;18.294;2023-05-14T03:11:31;102537.84;;;8.71;59.48
76311;BME280;65120;59.304;18.294;2023-05-14T03:13:58;102545.69;;;8.73;59.79
76311;BME280;65120;59.304;18.294;2023-05-14T03:16:25;102545.69;;;8.73;59.77
76311;BME280;65120;59.304;18.294;2023-05-14T03:18:52;102549.16;;;8.73;59.65
76311;BME280;65120;59.304;18.294;2023-05-14T03:21:19;102537.81;;;8.70;59.84
76311;BME280;65120;59.304;18.294;2023-05-14T03:23:47;102542.19;;;8.71;60.35
76311;BME280;65120;59.304;18.294;2023-05-14T03:26:14;102550.88;;;8.73;60.13
76311;BME280;65120;59.304;18.294;2023-05-14T03:28:41;102541.34;;;8.73;60.31
76311;BME280;65120;59.304;18.294;2023-05-14T03:31:08;102547.41;;;8.72;60.29
76311;BME280;65120;59.304;18.294;2023-05-14T03:33:35;102539.59;;;8.72;60.32
76311;BME280;65120;59.304;18.294;2023-05-14T03:36:02;102541.34;;;8.73;60.45
76311;BME280;65120;59.304;18.294;2023-05-14T03:38:29;102541.38;;;8.76;60.74
76311;BME280;65120;59.304;18.294;2023-05-14T03:40:58;102540.56;;;8.77;61.11
76311;BME280;65120;59.304;18.294;2023-05-14T03:43:24;102543.16;;;8.77;60.72
76311;BME280;65120;59.304;18.294;2023-05-14T03:45:51;102544.94;;;8.80;61.06
76311;BME280;65120;59.304;18.294;2023-05-14T03:48:18;102536.31;;;8.83;61.62
76311;BME280;65120;59.304;18.294;2023-05-14T03:50:45;102530.16;;;8.79;61.89
76311;BME280;65120;59.304;18.294;2023-05-14T03:53:12;102540.75;;;8.88;61.95
76311;BME280;65120;59.304;18.294;2023-05-14T03:55:39;102538.19;;;8.93;62.07
76311;BME280;65120;59.304;18.294;2023-05-14T03:58:08;102534.81;;;8.97;62.70
76311;BME280;65120;59.304;18.294;2023-05-14T04:00:39;102528.78;;;9.01;62.56
76311;BME280;65120;59.304;18.294;2023-05-14T04:03:05;102527.09;;;9.03;62.66
76311;BME280;65120;59.304;18.294;2023-05-14T04:05:32;102518.47;;;9.09;63.10
76311;BME280;65120;59.304;18.294;2023-05-14T04:07:59;102528.13;;;9.16;63.30
76311;BME280;65120;59.304;18.294;2023-05-14T04:10:26;102529.97;;;9.21;63.14
76311;BME280;65120;59.304;18.294;2023-05-14T04:12:53;102524.00;;;9.29;63.73
76311;BME280;65120;59.304;18.294;2023-05-14T04:15:22;102523.22;;;9.36;63.81
76311;BME280;65120;59.304;18.294;2023-05-14T04:17:49;102512.81;;;9.39;63.86
76311;BME280;65120;59.304;18.294;2023-05-14T04:20:16;102524.38;;;9.55;63.78
76311;BME280;65120;59.304;18.294;2023-05-14T04:22:42;102525.41;;;9.66;64.05
76311;BME280;65120;59.304;18.294;2023-05-14T04:25:10;102512.50;;;9.77;64.18
76311;BME280;65120;59.304;18.294;2023-05-14T04:27:36;102518.72;;;9.88;63.93
76311;BME280;65120;59.304;18.294;2023-05-14T04:30:04;102511.91;;;9.99;64.29
76311;BME280;65120;59.304;18.294;2023-05-14T04:32:34;102514.63;;;10.10;64.53
76311;BME280;65120;59.304;18.294;2023-05-14T04:35:01;102503.53;;;10.28;64.04
76311;BME280;65120;59.304;18.294;2023-05-14T04:37:28;102508.91;;;10.43;63.96
76311;BME280;65120;59.304;18.294;2023-05-14T04:39:56;102511.66;;;10.58;63.66
76311;BME280;65120;59.304;18.294;2023-05-14T04:42:23;102506.53;;;10.69;63.31
76311;BME280;65120;59.304;18.294;2023-05-14T04:44:49;102509.28;;;10.86;63.46
76311;BME280;65120;59.304;18.294;2023-05-14T04:47:16;102505.94;;;11.02;62.89
76311;BME280;65120;59.304;18.294;2023-05-14T04:49:45;102508.69;;;11.19;63.03
76311;BME280;65120;59.304;18.294;2023-05-14T04:52:12;102500.06;;;11.37;62.39
76311;BME280;65120;59.304;18.294;2023-05-14T04:54:39;102501.03;;;11.55;62.31
76311;BME280;65120;59.304;18.294;2023-05-14T04:57:06;102489.78;;;11.71;61.82
76311;BME280;65120;59.304;18.294;2023-05-14T04:59:32;102497.72;;;11.89;61.48
76311;BME280;65120;59.304;18.294;2023-05-14T05:01:59;102495.16;;;12.06;61.34
76311;BME280;65120;59.304;18.294;2023-05-14T05:04:26;102501.31;;;12.22;60.57
76311;BME280;65120;59.304;18.294;2023-05-14T05:06:55;102499.59;;;12.40;60.92
76311;BME280;65120;59.304;18.294;2023-05-14T05:09:21;102499.63;;;12.53;59.72
76311;BME280;65120;59.304;18.294;2023-05-14T05:11:48;102512.75;;;12.66;59.50
76311;BME280;65120;59.304;18.294;2023-05-14T05:14:15;102505.78;;;12.75;59.41
76311;BME280;65120;59.304;18.294;2023-05-14T05:16:42;102501.41;;;12.83;58.96
76311;BME280;65120;59.304;18.294;2023-05-14T05:19:09;102505.75;;;12.89;58.75
76311;BME280;65120;59.304;18.294;2023-05-14T05:21:37;102497.00;;;12.96;58.35
76311;BME280;65120;59.304;18.294;2023-05-14T05:24:07;102499.63;;;13.05;58.22
76311;BME280;65120;59.304;18.294;2023-05-14T05:26:34;102490.84;;;13.14;57.81
76311;BME280;65120;59.304;18.294;2023-05-14T05:29:02;102496.09;;;13.20;57.57
76311;BME280;65120;59.304;18.294;2023-05-14T05:31:29;102491.75;;;13.30;57.25
76311;BME280;65120;59.304;18.294;2023-05-14T05:33:57;102500.47;;;13.37;57.09
76311;BME280;65120;59.304;18.294;2023-05-14T05:36:24;102504.84;;;13.44;56.65
76311;BME280;65120;59.304;18.294;2023-05-14T05:38:51;102496.06;;;13.51;56.57
76311;BME280;65120;59.304;18.294;2023-05-14T05:41:19;102492.53;;;13.60;56.26
76311;BME280;65120;59.304;18.294;2023-05-14T05:43:46;102489.88;;;13.67;56.17
76311;BME280;65120;59.304;18.294;2023-05-14T05:46:13;102491.59;;;13.76;56.07
76311;BME280;65120;59.304;18.294;2023-05-14T05:48:40;102499.44;;;13.82;55.75
76311;BME280;65120;59.304;18.294;2023-05-14T05:51:07;102497.66;;;13.90;55.56
76311;BME280;65120;59.304;18.294;2023-05-14T05:53:34;102501.09;;;13.97;55.32
76311;BME280;65120;59.304;18.294;2023-05-14T05:56:01;102490.59;;;14.03;55.34
76311;BME280;65120;59.304;18.294;2023-05-14T05:58:29;102498.44;;;14.08;55.10
76311;BME280;65120;59.304;18.294;2023-05-14T06:00:56;102495.78;;;14.12;54.92
76311;BME280;65120;59.304;18.294;2023-05-14T06:03:23;102491.38;;;14.16;54.95
76311;BME280;65120;59.304;18.294;2023-05-14T06:05:49;102493.13;;;14.18;54.59
76311;BME280;65120;59.304;18.294;2023-05-14T06:08:16;102492.25;;;14.16;54.31
76311;BME280;65120;59.304;18.294;2023-05-14T06:10:43;102498.34;;;14.20;54.47
76311;BME280;65120;59.304;18.294;2023-05-14T06:13:11;102498.34;;;14.22;54.32
76311;BME280;65120;59.304;18.294;2023-05-14T06:15:39;102490.47;;;14.23;54.30
76311;BME280;65120;59.304;18.294;2023-05-14T06:18:06;102490.44;;;14.25;54.20
76311;BME280;65120;59.304;18.294;2023-05-14T06:20:33;102493.06;;;14.29;53.97
76311;BME280;65120;59.304;18.294;2023-05-14T06:23:00;102483.38;;;14.33;53.94
76311;BME280;65120;59.304;18.294;2023-05-14T06:25:27;102484.25;;;14.38;53.91
76311;BME280;65120;59.304;18.294;2023-05-14T06:27:54;102481.59;;;14.41;54.02
76311;BME280;65120;59.304;18.294;2023-05-14T06:30:20;102488.59;;;14.44;53.89
76311;BME280;65120;59.304;18.294;2023-05-14T06:32:49;102490.31;;;14.46;53.73
76311;BME280;65120;59.304;18.294;2023-05-14T06:35:16;102491.16;;;14.48;53.75
76311;BME280;65120;59.304;18.294;2023-05-14T06:37:43;102489.44;;;14.52;53.75
76311;BME280;65120;59.304;18.294;2023-05-14T06:40:10;102480.63;;;14.56;53.72
76311;BME280;65120;59.304;18.294;2023-05-14T06:42:40;102487.59;;;14.61;53.76
76311;BME280;65120;59.304;18.294;2023-05-14T06:45:07;102479.66;;;14.68;53.64
76311;BME280;65120;59.304;18.294;2023-05-14T06:47:34;102478.72;;;14.73;53.68
76311;BME280;65120;59.304;18.294;2023-05-14T06:50:02;102484.84;;;14.80;53.79
76311;BME280;65120;59.304;18.294;2023-05-14T06:52:29;102478.59;;;14.85;53.69
76311;BME280;65120;59.304;18.294;2023-05-14T06:54:56;102475.91;;;14.93;53.64
76311;BME280;65120;59.304;18.294;2023-05-14T06:57:23;102473.22;;;15.01;53.47
76311;BME280;65120;59.304;18.294;2023-05-14T06:59:50;102483.66;;;15.10;53.58
76311;BME280;65120;59.304;18.294;2023-05-14T07:02:17;102478.28;;;15.19;53.47
76311;BME280;65120;59.304;18.294;2023-05-14T07:04:44;102479.91;;;15.33;53.11
76311;BME280;65120;59.304;18.294;2023-05-14T07:07:12;102473.63;;;15.44;53.02
76311;BME280;65120;59.304;18.294;2023-05-14T07:09:42;102469.09;;;15.56;52.91
76311;BME280;65120;59.304;18.294;2023-05-14T07:12:09;102476.00;;;15.69;52.59
76311;BME280;65120;59.304;18.294;2023-05-14T07:14:36;102475.88;;;15.80;52.30
76311;BME280;65120;59.304;18.294;2023-05-14T07:17:03;102468.72;;;15.89;52.23
76311;BME280;65120;59.304;18.294;2023-05-14T07:19:30;102468.47;;;16.05;52.10
76311;BME280;65120;59.304;18.294;2023-05-14T07:21:57;102471.81;;;16.17;51.70
76311;BME280;65120;59.304;18.294;2023-05-14T07:24:25;102469.84;;;16.32;51.37
76311;BME280;65120;59.304;18.294;2023-05-14T07:26:52;102474.88;;;16.47;51.21
76311;BME280;65120;59.304;18.294;2023-05-14T07:29:21;102465.00;;;16.60;51.30
76311;BME280;65120;59.304;18.294;2023-05-14T07:31:49;102463.03;;;16.73;50.96
76311;BME280;65120;59.304;18.294;2023-05-14T07:34:17;102465.41;;;16.90;50.90
76311;BME280;65120;59.304;18.294;2023-05-14T07:36:44;102462.50;;;17.05;50.78
76311;BME280;65120;59.304;18.294;2023-05-14T07:39:11;102461.34;;;17.20;50.70
76311;BME280;65120;59.304;18.294;2023-05-14T07:41:39;102453.16;;;17.34;50.12
76311;BME280;65120;59.304;18.294;2023-05-14T07:44:06;102450.25;;;17.46;49.90
76311;BME280;65120;59.304;18.294;2023-05-14T07:46:33;102447.34;;;17.58;49.53
76311;BME280;65120;59.304;18.294;2023-05-14T07:48:59;102454.03;;;17.74;49.20
76311;BME280;65120;59.304;18.294;2023-05-14T07:51:26;102451.13;;;17.88;48.85
76311;BME280;65120;59.304;18.294;2023-05-14T07:53:53;102440.19;;;18.04;47.92
76311;BME280;65120;59.304;18.294;2023-05-14T07:56:21;102439.94;;;18.16;47.91
76311;BME280;65120;59.304;18.294;2023-05-14T07:58:49;102444.06;;;18.28;47.52
76311;BME280;65120;59.304;18.294;2023-05-14T08:01:16;102446.38;;;18.41;47.32
76311;BME280;65120;59.304;18.294;2023-05-14T08:03:43;102431.16;;;18.50;47.22
76311;BME280;65120;59.304;18.294;2023-05-14T08:06:10;102431.53;;;18.70;46.87
76311;BME280;65120;59.304;18.294;2023-05-14T08:08:37;102432.09;;;18.83;46.90
76311;BME280;65120;59.304;18.294;2023-05-14T08:11:04;102426.63;;;18.89;46.39
76311;BME280;65120;59.304;18.294;2023-05-14T08:13:31;102427.97;;;19.04;46.56
76311;BME280;65120;59.304;18.294;2023-05-14T08:15:59;102421.53;;;19.14;45.88
76311;BME280;65120;59.304;18.294;2023-05-14T08:18:26;102427.41;;;19.25;45.76
76311;BME280;65120;59.304;18.294;2023-05-14T08:20:52;102425.31;;;19.37;45.08
76311;BME280;65120;59.304;18.294;2023-05-14T08:23:19;102420.69;;;19.43;44.92
76311;BME280;65120;59.304;18.294;2023-05-14T08:25:46;102425.78;;;19.51;44.94
76311;BME280;65120;59.304;18.294;2023-05-14T08:28:13;102422.03;;;19.58;44.62
76311;BME280;65120;59.304;18.294;2023-05-14T08:30:40;102422.75;;;19.63;44.24
76311;BME280;65120;59.304;18.294;2023-05-14T08:33:08;102420.84;;;19.70;44.49
76311;BME280;65120;59.304;18.294;2023-05-14T08:35:35;102417.97;;;19.76;44.04
76311;BME280;65120;59.304;18.294;2023-05-14T08:38:02;102416.06;;;19.81;44.05
76311;BME280;65120;59.304;18.294;2023-05-14T08:40:29;102415.00;;;19.87;43.89
76311;BME280;65120;59.304;18.294;2023-05-14T08:42:56;102416.59;;;19.92;43.98
76311;BME280;65120;59.304;18.294;2023-05-14T08:45:28;102403.38;;;19.91;44.07
76311;BME280;65120;59.304;18.294;2023-05-14T08:47:57;102416.31;;;20.02;43.86
76311;BME280;65120;59.304;18.294;2023-05-14T08:50:27;102411.63;;;20.10;43.56
76311;BME280;65120;59.304;18.294;2023-05-14T08:52:55;102413.13;;;20.17;43.36
76311;BME280;65120;59.304;18.294;2023-05-14T08:55:22;102421.78;;;20.24;43.13
76311;BME280;65120;59.304;18.294;2023-05-14T08:57:50;102413.66;;;20.28;42.68
76311;BME280;65120;59.304;18.294;2023-05-14T09:00:17;102420.72;;;20.29;41.65
76311;BME280;65120;59.304;18.294;2023-05-14T09:02:45;102413.56;;;20.31;41.70
76311;BME280;65120;59.304;18.294;2023-05-14T09:05:12;102416.00;;;20.37;42.17
76311;BME280;65120;59.304;18.294;2023-05-14T09:07:41;102415.00;;;20.41;41.83
76311;BME280;65120;59.304;18.294;2023-05-14T09:10:09;102413.06;;;20.47;41.62
76311;BME280;65120;59.304;18.294;2023-05-14T09:12:36;102404.91;;;20.53;41.34
76311;BME280;65120;59.304;18.294;2023-05-14T09:15:03;102402.09;;;20.57;41.04
76311;BME280;65120;59.304;18.294;2023-05-14T09:17:31;102398.44;;;20.60;40.79
76311;BME280;65120;59.304;18.294;2023-05-14T09:19:59;102392.13;;;20.64;40.76
76311;BME280;65120;59.304;18.294;2023-05-14T09:22:28;102388.44;;;20.68;40.43
76311;BME280;65120;59.304;18.294;2023-05-14T09:25:06;102392.72;;;20.72;40.26
76311;BME280;65120;59.304;18.294;2023-05-14T09:27:34;102384.59;;;20.77;39.89
76311;BME280;65120;59.304;18.294;2023-05-14T09:30:06;102392.31;;;20.83;39.66
76311;BME280;65120;59.304;18.294;2023-05-14T09:32:37;102387.81;;;20.86;39.30
76311;BME280;65120;59.304;18.294;2023-05-14T09:35:12;102390.22;;;20.93;39.58
76311;BME280;65120;59.304;18.294;2023-05-14T09:37:42;102385.63;;;20.98;39.35
76311;BME280;65120;59.304;18.294;2023-05-14T09:40:11;102388.94;;;21.03;39.37
76311;BME280;65120;59.304;18.294;2023-05-14T09:42:39;102381.75;;;21.06;39.42
76311;BME280;65120;59.304;18.294;2023-05-14T09:45:06;102385.97;;;21.12;39.27
76311;BME280;65120;59.304;18.294;2023-05-14T09:47:33;102377.06;;;21.13;39.34
76311;BME280;65120;59.304;18.294;2023-05-14T09:50:00;102381.22;;;21.20;38.88
76311;BME280;65120;59.304;18.294;2023-05-14T09:52:27;102385.50;;;21.24;39.09
76311;BME280;65120;59.304;18.294;2023-05-14T09:54:54;102377.41;;;21.27;38.91
76311;BME280;65120;59.304;18.294;2023-05-14T09:57:23;102371.97;;;21.30;39.04
76311;BME280;65120;59.304;18.294;2023-05-14T09:59:51;102368.34;;;21.33;39.12
76311;BME280;65120;59.304;18.294;2023-05-14T10:02:21;102369.84;;;21.40;39.27
76311;BME280;65120;59.304;18.294;2023-05-14T10:04:50;102356.28;;;21.48;38.82
76311;BME280;65120;59.304;18.294;2023-05-14T10:07:22;102358.78;;;21.52;38.71
76311;BME280;65120;59.304;18.294;2023-05-14T10:09:56;102349.81;;;21.55;38.76
76311;BME280;65120;59.304;18.294;2023-05-14T10:12:28;102344.38;;;21.58;38.92
76311;BME280;65120;59.304;18.294;2023-05-14T10:15:00;102340.66;;;21.62;38.41
76311;BME280;65120;59.304;18.294;2023-05-14T10:17:30;102342.31;;;21.65;38.03
76311;BME280;65120;59.304;18.294;2023-05-14T10:19:58;102332.53;;;21.65;37.89
76311;BME280;65120;59.304;18.294;2023-05-14T10:22:30;102332.50;;;21.67;37.31
76311;BME280;65120;59.304;18.294;2023-05-14T10:24:59;102334.09;;;21.71;36.90
76311;BME280;65120;59.304;18.294;2023-05-14T10:27:29;102328.59;;;21.75;36.05
76311;BME280;65120;59.304;18.294;2023-05-14T10:29:56;102316.75;;;21.83;34.41
76311;BME280;65120;59.304;18.294;2023-05-14T10:32:24;102326.38;;;21.87;33.64
76311;BME280;65120;59.304;18.294;2023-05-14T10:34:52;102319.06;;;21.92;33.43
76311;BME280;65120;59.304;18.294;2023-05-14T10:37:21;102320.53;;;21.99;32.66
76311;BME280;65120;59.304;18.294;2023-05-14T10:39:49;102313.22;;;22.04;31.81
76311;BME280;65120;59.304;18.294;2023-05-14T10:42:17;102308.56;;;22.09;31.07
76311;BME280;65120;59.304;18.294;2023-05-14T10:44:54;102310.09;;;22.15;31.23
76311;BME280;65120;59.304;18.294;2023-05-14T10:47:23;102292.53;;;22.11;30.86
76311;BME280;65120;59.304;18.294;2023-05-14T10:49:53;102301.81;;;22.22;31.25
76311;BME280;65120;59.304;18.294;2023-05-14T10:52:20;102294.50;;;22.28;30.47
76311;BME280;65120;59.304;18.294;2023-05-14T10:54:51;102294.31;;;22.32;30.05
76311;BME280;65120;59.304;18.294;2023-05-14T10:57:20;102287.03;;;22.36;29.82
76311;BME280;65120;59.304;18.294;2023-05-14T10:59:48;102290.38;;;22.41;29.25
76311;BME280;65120;59.304;18.294;2023-05-14T11:02:23;102287.63;;;22.42;28.88
76311;BME280;65120;59.304;18.294;2023-05-14T11:04:55;102286.56;;;22.47;28.80
76311;BME280;65120;59.304;18.294;2023-05-14T11:07:26;102269.06;;;22.41;28.38
76311;BME280;65120;59.304;18.294;2023-05-14T11:09:59;102288.00;;;22.54;28.53
76311;BME280;65120;59.304;18.294;2023-05-14T11:12:26;102290.53;;;22.57;28.94
76311;BME280;65120;59.304;18.294;2023-05-14T11:14:56;102292.06;;;22.62;28.37
76311;BME280;65120;59.304;18.294;2023-05-14T11:17:25;102278.63;;;22.65;28.06
76311;BME280;65120;59.304;18.294;2023-05-14T11:19:52;102285.66;;;22.66;28.07
76311;BME280;65120;59.304;18.294;2023-05-14T11:22:19;102277.59;;;22.68;28.34
76311;BME280;65120;59.304;18.294;2023-05-14T11:24:46;102273.88;;;22.72;28.07
76311;BME280;65120;59.304;18.294;2023-05-14T11:27:13;102275.44;;;22.76;27.67
76311;BME280;65120;59.304;18.294;2023-05-14T11:29:43;102275.31;;;22.79;27.53
76311;BME280;65120;59.304;18.294;2023-05-14T11:32:11;102269.06;;;22.80;27.26
76311;BME280;65120;59.304;18.294;2023-05-14T11:34:39;102270.72;;;22.83;27.11
76311;BME280;65120;59.304;18.294;2023-05-14T11:37:07;102263.66;;;22.82;27.01
76311;BME280;65120;59.304;18.294;2023-05-14T11:39:35;102275.91;;;22.86;26.90
76311;BME280;65120;59.304;18.294;2023-05-14T11:42:04;102260.94;;;22.83;26.96
76311;BME280;65120;59.304;18.294;2023-05-14T11:44:31;102265.91;;;22.91;26.52
76311;BME280;65120;59.304;18.294;2023-05-14T11:46:58;102269.34;;;22.93;26.31
76311;BME280;65120;59.304;18.294;2023-05-14T11:49:26;102266.63;;;22.95;26.71
76311;BME280;65120;59.304;18.294;2023-05-14T11:51:59;102262.97;;;22.97;25.62
76311;BME280;65120;59.304;18.294;2023-05-14T11:54:26;102258.56;;;22.96;25.49
76311;BME280;65120;59.304;18.294;2023-05-14T11:56:54;102255.03;;;22.96;25.41
76311;BME280;65120;59.304;18.294;2023-05-14T11:59:23;102262.03;;;22.98;25.42
76311;BME280;65120;59.304;18.294;2023-05-14T12:01:50;102257.50;;;23.00;25.29
76311;BME280;65120;59.304;18.294;2023-05-14T12:04:18;102252.19;;;23.00;25.04
76311;BME280;65120;59.304;18.294;2023-05-14T12:06:47;102244.19;;;23.00;25.18
76311;BME280;65120;59.304;18.294;2023-05-14T12:09:16;102253.88;;;23.01;25.12
76311;BME280;65120;59.304;18.294;2023-05-14T12:11:44;102244.19;;;23.00;25.36
76311;BME280;65120;59.304;18.294;2023-05-14T12:14:13;102244.88;;;23.04;25.34
76311;BME280;65120;59.304;18.294;2023-05-14T12:16:44;102242.16;;;23.05;25.42
76311;BME280;65120;59.304;18.294;2023-05-14T12:19:13;102248.25;;;23.07;25.24
76311;BME280;65120;59.304;18.294;2023-05-14T12:21:42;102245.53;;;23.09;24.94
76311;BME280;65120;59.304;18.294;2023-05-14T12:29:05;102246.34;;;23.11;24.58
76311;BME280;65120;59.304;18.294;2023-05-14T12:31:33;102235.59;;;23.12;24.95
76311;BME280;65120;59.304;18.294;2023-05-14T12:34:01;102238.19;;;23.14;24.38
76311;BME280;65120;59.304;18.294;2023-05-14T12:36:28;102237.47;;;23.10;23.93
76311;BME280;65120;59.304;18.294;2023-05-14T12:38:58;102231.97;;;23.13;24.18
76311;BME280;65120;59.304;18.294;2023-05-14T12:41:26;102231.91;;;23.15;24.18
76311;BME280;65120;59.304;18.294;2023-05-14T12:43:54;102239.06;;;23.15;24.48
76311;BME280;65120;59.304;18.294;2023-05-14T12:46:21;102235.53;;;23.14;24.14
76311;BME280;65120;59.304;18.294;2023-05-14T12:48:48;102236.38;;;23.15;24.11
76311;BME280;65120;59.304;18.294;2023-05-14T12:51:15;102241.63;;;23.16;24.34